EGFF/CWL METAR and TAF weather

Enter ICAO airport designator
Station Type Date Time Source
EGFF METAR 2022/08/12 15:50 UTC NOAA

EGFF 121550Z AUTO 09005KT 020V150 9999 NCD 32/09 Q1016


Station Type Date Time Source
EGFF Decoded METAR 2022/08/12 15:50 UTC NOAA

Cardiff-Wales Airport, United Kingdom (EGFF) 51-24N 003-21W 0M
Aug 12, 2022 - 11:50 AM EDT / 2022.08.12 1550 UTC
Wind: from the E (090 degrees) at 6 MPH (5 KT) (direction variable):0
Visibility: greater than 7 mile(s):0
Temperature: 89 F (32 C)
Dew Point: 48 F (9 C)
Relative Humidity: 24%
Pressure (altimeter): 30.00 in. Hg (1016 hPa)
ob: EGFF 121550Z AUTO 09005KT 020V150 9999 NCD 32/09 Q1016
cycle: 16

Station Type Date Time Source
EGFF TAF 2022/08/12 12:09 UTC NOAA

TAF EGFF 121056Z 1212/1312 10010KT CAVOK
TEMPO 1218/1224 VRB03KT

Example: see airport list